Time;durP1;ratioP1;P1;durP2;ratioP2;P2;SDS_P1;SDS_P2;PMS_P1;PMS_P2;Temp;Humidity;BMP_temperature;BMP_pressure;BME280_temperature;BME280_humidity;BME280_pressure;Samples;Min_cycle;Max_cycle;Signal;HPM_P1;HPM_P2
2021/12/28 07:14:21;;;;;;;6.53;4.90;;;;;;;4.62;100.00;93739.31;6008261;23;20246;-81
2021/12/28 07:16:46;;;;;;;6.67;5.03;;;;;;;4.66;100.00;93727.75;5985347;23;20190;-82
2021/12/28 07:19:11;;;;;;;7.10;5.00;;;;;;;4.66;100.00;93735.47;5986399;23;20186;-82
2021/12/28 07:21:38;;;;;;;4.87;4.30;;;;;;;4.68;100.00;93728.41;6009425;23;20501;-82
2021/12/28 07:24:08;;;;;;;7.33;4.70;;;;;;;4.66;100.00;93735.47;5986910;23;20189;-80
2021/12/28 07:26:33;;;;;;;6.20;4.30;;;;;;;4.73;100.00;93728.72;6010433;23;20658;-83
2021/12/28 07:28:59;;;;;;;6.47;4.27;;;;;;;4.75;100.00;93726.00;6010451;23;20157;-81
2021/12/28 07:31:24;;;;;;;6.20;4.53;;;;;;;4.70;100.00;93726.47;6009510;23;20531;-83
2021/12/28 07:33:50;;;;;;;9.20;4.63;;;;;;;4.80;100.00;93729.72;6010585;23;20502;-82
2021/12/28 07:36:15;;;;;;;4.60;3.97;;;;;;;4.80;100.00;93728.91;6011714;23;20193;-83
2021/12/28 07:38:41;;;;;;;4.33;3.23;;;;;;;4.82;100.00;93725.22;6010029;23;20179;-83
2021/12/28 07:41:06;;;;;;;5.70;3.40;;;;;;;4.78;100.00;93734.22;6009169;23;20530;-82
2021/12/28 07:43:32;;;;;;;4.10;3.20;;;;;;;4.91;100.00;93738.09;6010204;23;20230;-82
2021/12/28 07:45:57;;;;;;;5.10;3.17;;;;;;;4.97;100.00;93735.72;6010028;23;20188;-81
2021/12/28 07:48:22;;;;;;;4.47;3.13;;;;;;;5.00;100.00;93730.25;6010692;23;20174;-81
2021/12/28 07:50:48;;;;;;;2.60;2.37;;;;;;;5.06;100.00;93736.53;6009995;23;20252;-82
2021/12/28 07:53:13;;;;;;;4.93;3.80;;;;;;;5.08;100.00;93732.03;6009082;23;20173;-80
2021/12/28 07:55:38;;;;;;;3.10;2.73;;;;;;;5.18;100.00;93732.69;6010880;23;20665;-81
2021/12/28 07:58:04;;;;;;;3.47;2.40;;;;;;;5.16;100.00;93742.34;6009994;23;20673;-82
2021/12/28 08:00:29;;;;;;;2.30;2.10;;;;;;;5.12;100.00;93746.16;6009796;23;20528;-84
2021/12/28 08:02:55;;;;;;;3.97;2.47;;;;;;;5.16;100.00;93744.91;6008923;23;20165;-82
2021/12/28 08:05:20;;;;;;;2.90;2.60;;;;;;;5.20;100.00;93753.91;6009852;23;20179;-83
2021/12/28 08:07:46;;;;;;;2.90;2.67;;;;;;;5.25;100.00;93759.41;5985754;23;20163;-82
2021/12/28 08:10:13;;;;;;;3.50;2.57;;;;;;;5.29;100.00;93757.28;6008893;23;20166;-82
2021/12/28 08:12:38;;;;;;;2.20;2.00;;;;;;;5.35;100.00;93759.25;6007963;23;20162;-83
2021/12/28 08:15:04;;;;;;;3.17;2.37;;;;;;;5.33;100.00;93767.13;6009320;23;20143;-82
2021/12/28 08:17:30;;;;;;;3.30;2.13;;;;;;;5.37;100.00;93770.97;6009033;23;20170;-82
2021/12/28 08:19:58;;;;;;;2.43;2.03;;;;;;;5.42;100.00;93780.00;6008043;23;20220;-81
2021/12/28 08:22:24;;;;;;;2.73;2.07;;;;;;;5.42;100.00;93780.00;6010228;23;20158;-83
2021/12/28 08:24:49;;;;;;;3.50;2.80;;;;;;;5.37;100.00;93783.84;5985801;23;20794;-83
2021/12/28 08:27:15;;;;;;;4.03;2.80;;;;;;;5.42;100.00;93777.44;6009196;23;20266;-81
2021/12/28 08:29:40;;;;;;;4.07;2.60;;;;;;;5.44;100.00;93781.44;6008650;23;20489;-81
2021/12/28 08:32:06;;;;;;;3.57;2.03;;;;;;;5.49;100.00;93776.66;6007713;23;20170;-83
2021/12/28 08:34:31;;;;;;;2.53;1.97;;;;;;;5.55;100.00;93780.34;6011472;23;20174;-81
2021/12/28 08:36:56;;;;;;;2.80;1.73;;;;;;;5.60;100.00;93767.78;6008474;23;20174;-81
2021/12/28 08:39:21;;;;;;;2.07;1.87;;;;;;;5.56;100.00;93776.78;6009093;23;20175;-82
2021/12/28 08:41:47;;;;;;;1.93;1.73;;;;;;;5.73;100.00;93778.41;5985606;23;20169;-81
2021/12/28 08:44:12;;;;;;;4.23;1.80;;;;;;;5.74;100.00;93779.22;5985699;23;20174;-82
2021/12/28 08:46:39;;;;;;;2.47;1.50;;;;;;;5.88;100.00;93781.16;5984718;23;20193;-81
2021/12/28 08:49:05;;;;;;;1.83;1.67;;;;;;;5.94;100.00;93780.53;5984484;23;20222;-81
2021/12/28 08:51:30;;;;;;;2.00;1.50;;;;;;;6.13;100.00;93784.53;6007710;23;20162;-82
2021/12/28 08:53:57;;;;;;;2.90;1.00;;;;;;;6.17;100.00;93776.31;5984495;23;20170;-83
2021/12/28 08:56:24;;;;;;;1.50;1.40;;;;;;;6.14;100.00;93801.59;6007633;23;20190;-85
2021/12/28 08:58:51;;;;;;;0.93;0.87;;;;;;;6.14;100.00;93791.31;6008139;23;20514;-81
2021/12/28 09:01:16;;;;;;;1.10;1.00;;;;;;;6.27;100.00;93798.50;6007940;23;20155;-82
2021/12/28 09:03:42;;;;;;;2.20;1.27;;;;;;;6.31;100.00;93795.47;5985712;23;20176;-83
2021/12/28 09:06:07;;;;;;;1.20;1.10;;;;;;;6.39;100.00;93804.94;6008971;23;20187;-83
2021/12/28 09:08:32;;;;;;;1.63;1.20;;;;;;;6.50;100.00;93802.81;6008711;23;20178;-84
2021/12/28 09:10:58;;;;;;;1.50;0.60;;;;;;;6.67;100.00;93813.91;6008229;23;20158;-83
2021/12/28 09:13:23;;;;;;;0.50;0.50;;;;;;;6.78;100.00;93805.78;6014550;23;20250;-81
2021/12/28 09:15:51;;;;;;;0.40;0.40;;;;;;;6.86;100.00;93825.59;6009167;23;20629;-83
2021/12/28 09:18:17;;;;;;;1.50;1.10;;;;;;;7.04;100.00;93818.44;6009847;23;20463;-83
2021/12/28 09:20:43;;;;;;;0.57;0.57;;;;;;;7.12;100.00;93825.34;5985590;23;20173;-83
2021/12/28 09:23:10;;;;;;;0.90;0.90;;;;;;;7.18;100.00;93822.09;6032728;23;20170;-83
2021/12/28 09:25:36;;;;;;;4.37;3.17;;;;;;;7.19;100.00;93820.31;6034300;23;20204;-83
2021/12/28 09:28:01;;;;;;;3.03;2.20;;;;;;;7.28;100.00;93821.88;6011512;23;20165;-82
2021/12/28 09:30:27;;;;;;;3.70;3.40;;;;;;;7.36;100.00;93824.44;6009591;23;20179;-83
2021/12/28 09:32:52;;;;;;;0.83;0.83;;;;;;;7.42;100.00;93823.75;6005587;23;20322;-81
2021/12/28 09:35:18;;;;;;;0.60;0.60;;;;;;;7.50;100.00;93822.88;6007379;23;20166;-82
2021/12/28 09:37:43;;;;;;;0.40;0.40;;;;;;;7.56;100.00;93825.59;6032218;23;20163;-82
2021/12/28 09:40:11;;;;;;;0.37;0.37;;;;;;;7.63;100.00;93831.69;6008071;23;20186;-82
2021/12/28 09:42:36;;;;;;;0.63;0.60;;;;;;;7.71;100.00;93842.94;6033060;23;20222;-82
2021/12/28 09:45:05;;;;;;;0.40;0.40;;;;;;;7.83;100.00;93847.53;6009095;23;20504;-83
2021/12/28 09:47:31;;;;;;;0.50;0.50;;;;;;;7.95;100.00;93850.50;6008867;23;20162;-82
2021/12/28 09:49:56;;;;;;;1.00;0.50;;;;;;;8.01;100.00;93847.25;6007911;23;20158;-80
2021/12/28 09:52:22;;;;;;;0.40;0.40;;;;;;;8.07;100.00;93854.31;5984974;23;20591;-82
2021/12/28 09:54:54;;;;;;;0.40;0.40;;;;;;;8.07;100.00;93856.09;5985634;23;20258;-84
2021/12/28 09:57:20;;;;;;;1.33;0.50;;;;;;;8.18;100.00;93856.47;6012087;23;20982;-84
2021/12/28 09:59:46;;;;;;;0.63;0.60;;;;;;;8.29;100.00;93842.31;6011627;23;20696;-83
2021/12/28 10:02:12;;;;;;;0.50;0.40;;;;;;;8.23;100.00;93843.84;6009962;23;20524;-82
2021/12/28 10:05:04;;;;;;;0.30;0.30;;;;;;;8.15;100.00;93851.66;6033268;23;20741;-82
2021/12/28 10:07:33;;;;;;;1.77;0.40;;;;;;;8.27;100.00;93857.22;6036211;23;20250;-82
2021/12/28 10:09:59;;;;;;;0.70;0.70;;;;;;;8.26;100.00;93857.41;6038910;23;20497;-83
2021/12/28 10:12:29;;;;;;;0.80;0.50;;;;;;;8.44;100.00;93861.31;6062187;23;20172;-82
2021/12/28 10:14:56;;;;;;;0.60;0.60;;;;;;;8.32;100.00;93862.69;6015530;23;20146;-82
2021/12/28 10:17:24;;;;;;;0.50;0.50;;;;;;;8.28;100.00;93858.03;5991770;23;20182;-83
2021/12/28 10:19:49;;;;;;;0.73;0.33;;;;;;;8.32;100.00;93861.88;6039320;23;20543;-82
2021/12/28 10:22:35;;;;;;;1.80;0.50;;;;;;;8.43;100.00;93864.88;6038129;23;20154;-80
2021/12/28 10:25:19;;;;;;;0.53;0.50;;;;;;;8.40;100.00;93861.84;6039334;23;20242;-83
2021/12/28 10:27:47;;;;;;;1.30;0.40;;;;;;;8.55;100.00;93867.84;6017439;23;20158;-83
2021/12/28 10:30:15;;;;;;;0.30;0.30;;;;;;;8.50;100.00;93864.97;6043143;23;20163;-82
2021/12/28 10:32:43;;;;;;;0.83;0.30;;;;;;;8.57;100.00;93863.31;6066404;23;20139;-82
2021/12/28 10:35:13;;;;;;;0.60;0.60;;;;;;;8.73;100.00;93860.53;6025678;23;20222;-82
2021/12/28 10:37:40;;;;;;;1.17;0.50;;;;;;;8.55;100.00;93867.84;5994786;23;20170;-82
2021/12/28 10:40:10;;;;;;;1.60;0.30;;;;;;;8.51;100.00;93864.00;6016427;23;20257;-82
2021/12/28 10:42:52;;;;;;;0.77;0.50;;;;;;;8.58;100.00;93871.88;5992908;23;20150;-85
2021/12/28 10:56:46;;;;;;;0.60;0.60;;;;;;;8.55;100.00;93851.50;6070572;23;20215;-82
2021/12/28 10:59:12;;;;;;;0.43;0.40;;;;;;;8.75;100.00;93856.00;6070386;23;20191;-82
2021/12/28 11:01:39;;;;;;;0.73;0.60;;;;;;;8.74;100.00;93856.16;6046348;23;20251;-82
2021/12/28 11:04:09;;;;;;;1.60;1.20;;;;;;;8.66;100.00;93846.72;6046094;23;20172;-82
2021/12/28 11:06:41;;;;;;;0.93;0.70;;;;;;;8.71;100.00;93857.31;6070638;23;20180;-84
2021/12/28 11:09:12;;;;;;;0.70;0.60;;;;;;;8.59;100.00;93858.75;6046585;23;20187;-82
2021/12/28 11:11:40;;;;;;;0.50;0.50;;;;;;;8.54;100.00;93863.63;6046194;23;20172;-82
2021/12/28 11:14:08;;;;;;;1.10;1.00;;;;;;;8.54;100.00;93866.22;6071065;23;20611;-82
2021/12/28 11:16:34;;;;;;;2.60;0.70;;;;;;;8.35;100.00;93861.56;6069998;23;20646;-83
2021/12/28 11:19:02;;;;;;;1.37;0.57;;;;;;;8.32;100.00;93849.75;6045839;23;20220;-82
2021/12/28 11:21:33;;;;;;;0.87;0.87;;;;;;;8.40;100.00;93841.16;6076411;23;20172;-83
2021/12/28 11:24:07;;;;;;;2.33;0.60;;;;;;;8.42;100.00;93837.41;6070798;23;20186;-80
2021/12/28 11:26:42;;;;;;;1.20;1.10;;;;;;;8.48;100.00;93841.88;6098290;23;20179;-79
2021/12/28 11:29:13;;;;;;;1.90;1.63;;;;;;;8.43;100.00;93838.22;6094679;23;20158;-81
2021/12/28 11:32:20;;;;;;;0.70;0.60;;;;;;;8.38;100.00;93835.34;6070867;23;20215;-81
2021/12/28 11:34:46;;;;;;;1.40;1.20;;;;;;;8.34;100.00;93828.88;6070469;23;20239;-81
2021/12/28 11:37:20;;;;;;;1.23;1.03;;;;;;;8.30;100.00;93832.78;6072431;23;20211;-79
2021/12/28 11:39:51;;;;;;;2.57;0.90;;;;;;;8.31;100.00;93834.41;6094677;23;20247;-80
2021/12/28 11:42:17;;;;;;;1.30;1.03;;;;;;;8.32;100.00;93825.69;6069684;23;20303;-83
2021/12/28 11:44:43;;;;;;;4.87;3.30;;;;;;;8.40;100.00;93829.03;6070894;23;20160;-80
2021/12/28 11:47:11;;;;;;;3.57;2.67;;;;;;;8.44;100.00;93819.91;6044527;23;20320;-80
2021/12/28 11:49:37;;;;;;;2.03;1.83;;;;;;;8.46;100.00;93817.94;6092291;23;20160;-80
2021/12/28 11:52:06;;;;;;;5.67;4.03;;;;;;;8.57;100.00;93818.50;6069502;23;20153;-79
2021/12/28 11:54:34;;;;;;;2.47;1.90;;;;;;;8.57;100.00;93815.91;6069163;23;20153;-80
2021/12/28 11:57:08;;;;;;;1.97;1.57;;;;;;;8.55;100.00;93826.44;6065641;23;20643;-80
2021/12/28 11:59:33;;;;;;;0.83;0.80;;;;;;;8.60;100.00;93818.97;6041355;23;20212;-79
2021/12/28 12:02:06;;;;;;;5.37;4.70;;;;;;;8.63;100.00;93807.44;6064956;23;20292;-79
2021/12/28 12:04:31;;;;;;;1.80;1.00;;;;;;;8.66;100.00;93810.50;6064947;23;20171;-80
2021/12/28 12:07:12;;;;;;;0.87;0.87;;;;;;;8.64;100.00;93809.03;6089354;23;20184;-80
2021/12/28 12:09:50;;;;;;;1.77;1.00;;;;;;;8.57;100.00;93808.97;6088037;23;20157;-81
2021/12/28 12:12:16;;;;;;;0.57;0.57;;;;;;;8.54;100.00;93798.97;6067483;23;20212;-80
2021/12/28 12:14:51;;;;;;;0.80;0.70;;;;;;;8.44;100.00;93804.41;6089368;23;20672;-79
2021/12/28 12:17:29;;;;;;;0.40;0.40;;;;;;;8.34;100.00;93792.69;6088611;23;20847;-80
2021/12/28 12:19:56;;;;;;;0.40;0.40;;;;;;;8.44;100.00;93788.06;6090858;23;20184;-81
2021/12/28 12:22:45;;;;;;;1.80;1.30;;;;;;;8.41;100.00;93797.00;6065212;23;20161;-81
2021/12/28 12:25:15;;;;;;;0.60;0.50;;;;;;;8.39;100.00;93792.97;6089887;23;20153;-80
2021/12/28 12:27:52;;;;;;;1.13;0.90;;;;;;;8.35;100.00;93792.53;6044352;23;20161;-80
2021/12/28 12:30:18;;;;;;;0.60;0.60;;;;;;;8.41;100.00;93801.38;6090749;23;20161;-80
2021/12/28 12:32:55;;;;;;;1.27;0.70;;;;;;;8.43;100.00;93792.44;6089045;23;20181;-80
2021/12/28 12:35:27;;;;;;;0.60;0.60;;;;;;;8.37;100.00;93790.56;6066983;23;20181;-79
2021/12/28 12:37:52;;;;;;;0.40;0.40;;;;;;;8.42;100.00;93788.25;6067410;23;20181;-80
2021/12/28 12:40:17;;;;;;;1.73;0.60;;;;;;;8.55;100.00;93786.81;6065362;23;20181;-79
2021/12/28 12:42:43;;;;;;;2.87;0.90;;;;;;;8.66;100.00;93784.63;6065080;23;20161;-80
2021/12/28 12:45:08;;;;;;;1.63;0.90;;;;;;;8.65;100.00;93782.19;6065031;23;20194;-80
2021/12/28 12:47:37;;;;;;;0.60;0.60;;;;;;;8.65;100.00;93777.00;6065290;23;20922;-80
2021/12/28 12:50:08;;;;;;;1.43;0.97;;;;;;;8.62;100.00;93780.78;6065093;23;20168;-80
2021/12/28 12:52:33;;;;;;;1.93;0.90;;;;;;;8.54;100.00;93782.63;6064645;23;20168;-80
2021/12/28 12:54:59;;;;;;;2.27;1.37;;;;;;;8.62;100.00;93780.78;6065517;23;20157;-79
2021/12/28 12:57:31;;;;;;;1.37;0.53;;;;;;;8.63;100.00;93777.19;6093155;23;20255;-81
2021/12/28 13:00:11;;;;;;;0.80;0.70;;;;;;;8.59;100.00;93770.78;6072182;23;20177;-80
2021/12/28 13:02:37;;;;;;;1.00;0.53;;;;;;;8.51;100.00;93755.34;6071624;23;20165;-80
2021/12/28 13:05:21;;;;;;;1.67;0.80;;;;;;;8.60;100.00;93764.63;6095830;23;20192;-80
2021/12/28 13:07:46;;;;;;;1.47;0.77;;;;;;;8.47;100.00;93767.00;6072218;23;20156;-80
2021/12/28 13:10:29;;;;;;;1.50;1.20;;;;;;;8.49;100.00;93750.34;6072241;23;20531;-80
2021/12/28 13:12:58;;;;;;;3.57;1.70;;;;;;;8.41;100.00;93755.63;6097262;23;20149;-81
2021/12/28 13:15:29;;;;;;;4.03;3.07;;;;;;;8.47;100.00;93754.88;6048264;23;20524;-80
2021/12/28 13:17:55;;;;;;;4.13;3.13;;;;;;;8.46;100.00;93760.25;6072275;23;20156;-80
2021/12/28 13:20:26;;;;;;;1.57;1.00;;;;;;;8.33;100.00;93754.88;6071093;23;20530;-79
2021/12/28 13:22:59;;;;;;;3.40;1.20;;;;;;;8.39;100.00;93738.66;6047463;23;20161;-80
2021/12/28 13:25:34;;;;;;;7.47;3.80;;;;;;;8.36;100.00;93732.06;6071737;23;20243;-80
2021/12/28 13:28:05;;;;;;;1.53;1.10;;;;;;;8.24;100.00;93717.94;6048043;23;20156;-81
2021/12/28 13:30:34;;;;;;;3.77;1.80;;;;;;;8.26;100.00;93741.84;6071148;23;20552;-80
2021/12/28 13:33:01;;;;;;;3.87;1.10;;;;;;;8.10;100.00;93726.47;6098894;23;20204;-82
2021/12/28 13:35:30;;;;;;;3.13;1.07;;;;;;;8.16;100.00;93728.38;6074146;23;20177;-82
2021/12/28 13:38:07;;;;;;;2.57;1.03;;;;;;;8.08;100.00;93713.72;6048230;23;20203;-81
2021/12/28 13:40:36;;;;;;;3.70;1.00;;;;;;;8.06;100.00;93707.94;6071888;23;20168;-81
2021/12/28 13:43:02;;;;;;;4.97;1.10;;;;;;;8.01;100.00;93699.09;6080964;23;20145;-79
2021/12/28 13:45:45;;;;;;;1.73;1.00;;;;;;;8.04;100.00;93694.41;6124648;23;20208;-79
2021/12/28 13:48:24;;;;;;;2.00;0.70;;;;;;;8.02;100.00;93700.72;6094858;23;20524;-80
2021/12/28 13:51:17;;;;;;;2.87;0.90;;;;;;;8.06;100.00;93712.31;6076064;23;20505;-80
2021/12/28 13:53:48;;;;;;;2.60;0.80;;;;;;;8.00;100.00;93700.09;6074609;23;20591;-82
2021/12/28 13:56:23;;;;;;;1.03;0.77;;;;;;;8.03;100.00;93691.97;6075002;23;20184;-80
2021/12/28 13:58:50;;;;;;;3.80;0.70;;;;;;;7.99;100.00;93694.13;6074240;23;20175;-80
2021/12/28 14:01:19;;;;;;;5.73;1.83;;;;;;;8.03;100.00;93697.13;6073849;23;20476;-80
2021/12/28 14:04:04;;;;;;;2.37;0.90;;;;;;;8.06;100.00;93701.97;6074844;23;20244;-81
2021/12/28 14:06:31;;;;;;;0.80;0.77;;;;;;;8.12;100.00;93712.38;6073857;23;20176;-81
2021/12/28 14:08:57;;;;;;;3.37;0.80;;;;;;;8.11;100.00;93704.81;6073298;23;20603;-79
2021/12/28 14:11:42;;;;;;;2.60;1.17;;;;;;;8.15;100.00;93712.06;6072663;23;20172;-80
2021/12/28 14:14:24;;;;;;;1.73;0.60;;;;;;;8.18;100.00;93716.84;6073353;23;20153;-82
2021/12/28 14:16:51;;;;;;;0.40;0.40;;;;;;;8.20;99.78;93727.81;6073611;23;20191;-81
2021/12/28 14:19:16;;;;;;;1.43;0.57;;;;;;;8.20;100.00;93734.78;6073420;23;20203;-80
2021/12/28 14:21:44;;;;;;;2.00;0.80;;;;;;;8.12;100.00;93735.66;6072259;23;20160;-82
2021/12/28 14:24:10;;;;;;;2.87;1.43;;;;;;;8.12;100.00;93740.81;6072015;23;20546;-81
2021/12/28 14:26:40;;;;;;;3.50;1.40;;;;;;;8.10;100.00;93745.38;6071257;23;20184;-79
2021/12/28 14:29:23;;;;;;;3.53;1.73;;;;;;;8.09;100.00;93748.94;6072009;23;20141;-81
2021/12/28 14:31:56;;;;;;;1.90;1.27;;;;;;;8.07;100.00;93761.25;6071861;23;20156;-80
2021/12/28 14:34:40;;;;;;;0.50;0.50;;;;;;;8.02;100.00;93763.53;6071165;23;20200;-79
2021/12/28 14:37:14;;;;;;;1.93;0.93;;;;;;;7.90;100.00;93770.13;6071695;23;20172;-81
2021/12/28 14:39:45;;;;;;;8.90;1.00;;;;;;;7.92;100.00;93778.50;6071084;23;20627;-81
2021/12/28 14:42:20;;;;;;;2.03;0.73;;;;;;;7.72;100.00;93783.34;6071488;23;20152;-78
2021/12/28 14:44:48;;;;;;;4.17;0.83;;;;;;;7.76;100.00;93789.75;6097251;23;20151;-81
2021/12/28 14:47:14;;;;;;;6.20;1.57;;;;;;;7.65;100.00;93803.09;6071583;23;20259;-80
2021/12/28 14:49:40;;;;;;;3.00;0.70;;;;;;;7.55;100.00;93836.09;6048026;23;20663;-79
2021/12/28 14:52:25;;;;;;;3.20;1.20;;;;;;;7.39;100.00;93860.22;6095368;23;20157;-79
2021/12/28 14:55:25;;;;;;;26.27;2.17;;;;;;;7.14;100.00;93861.31;6071942;23;20277;-78
2021/12/28 14:57:53;;;;;;;9.73;1.33;;;;;;;6.70;100.00;93867.72;6071826;23;20145;-79
2021/12/28 15:00:33;;;;;;;7.40;1.83;;;;;;;6.48;100.00;93876.16;6095440;23;20261;-81
2021/12/28 15:03:17;;;;;;;9.27;2.93;;;;;;;6.25;100.00;93850.25;6070749;23;20573;-78
2021/12/28 15:05:54;;;;;;;8.00;2.47;;;;;;;6.18;100.00;93857.84;6094938;23;20208;-80
2021/12/28 15:08:20;;;;;;;6.23;2.80;;;;;;;6.06;100.00;93858.31;6073100;23;20203;-79
2021/12/28 15:10:51;;;;;;;29.63;3.93;;;;;;;6.08;100.00;93852.00;6071946;23;20285;-78
2021/12/28 15:13:18;;;;;;;8.57;2.77;;;;;;;6.07;100.00;93840.09;6094093;23;20171;-80
2021/12/28 15:15:44;;;;;;;7.47;2.87;;;;;;;5.89;100.00;93849.72;6071516;23;20180;-78
2021/12/28 15:18:11;;;;;;;7.00;3.47;;;;;;;5.92;99.56;93852.84;6095742;23;20164;-79
2021/12/28 15:20:37;;;;;;;5.63;2.63;;;;;;;5.85;98.08;93859.56;6071662;23;20177;-79
2021/12/28 15:23:03;;;;;;;10.03;3.60;;;;;;;5.76;98.65;93852.00;6047271;23;20592;-79
2021/12/28 15:25:30;;;;;;;12.70;3.27;;;;;;;5.78;99.51;93886.91;6047626;23;20179;-79
2021/12/28 15:27:55;;;;;;;18.33;3.47;;;;;;;5.75;99.75;93894.97;6071622;23;20243;-79
2021/12/28 15:30:24;;;;;;;13.60;3.00;;;;;;;5.79;100.00;93896.25;6071147;23;20207;-80
2021/12/28 15:32:50;;;;;;;9.30;2.93;;;;;;;5.68;100.00;93910.25;6047024;23;20156;-79
2021/12/28 15:35:17;;;;;;;11.20;3.80;;;;;;;5.68;100.00;93915.41;6071351;23;20680;-78
2021/12/28 15:37:43;;;;;;;17.43;3.77;;;;;;;5.61;100.00;93906.69;6071298;23;20671;-79
2021/12/28 15:40:09;;;;;;;13.87;2.60;;;;;;;5.54;98.79;93915.19;6071039;23;20188;-79
2021/12/28 15:42:35;;;;;;;12.60;1.80;;;;;;;5.57;98.94;93922.63;6096633;23;20168;-79
2021/12/28 15:45:00;;;;;;;8.30;1.73;;;;;;;5.50;99.06;93916.47;6070922;23;20153;-78
2021/12/28 15:47:26;;;;;;;9.17;2.33;;;;;;;5.48;99.38;93936.41;6072038;23;20485;-79
2021/12/28 15:49:52;;;;;;;10.80;1.67;;;;;;;5.44;99.90;93933.34;6069942;23;20153;-79
2021/12/28 15:52:17;;;;;;;10.90;2.30;;;;;;;5.43;100.00;93939.47;6071000;23;20179;-78
2021/12/28 15:54:42;;;;;;;9.97;2.43;;;;;;;5.35;100.00;93954.88;6071511;23;20295;-78
2021/12/28 15:57:08;;;;;;;7.20;1.40;;;;;;;5.37;100.00;93961.47;6066777;23;20805;-78
2021/12/28 15:59:33;;;;;;;7.60;1.50;;;;;;;5.05;99.64;93984.47;6066900;23;20205;-80
2021/12/28 16:01:58;;;;;;;5.03;1.10;;;;;;;4.89;99.21;94000.63;6066333;23;20168;-81
2021/12/28 16:04:24;;;;;;;2.97;1.23;;;;;;;4.83;98.86;94007.16;6066375;23;20180;-82
2021/12/28 16:06:49;;;;;;;4.07;1.40;;;;;;;4.66;99.09;94002.06;6065988;23;20208;-82
2021/12/28 16:09:14;;;;;;;3.63;1.80;;;;;;;4.63;99.32;93992.88;6066344;23;20503;-81
2021/12/28 16:11:40;;;;;;;3.53;1.43;;;;;;;4.57;99.45;93985.75;6065469;23;20172;-82
2021/12/28 16:14:05;;;;;;;5.43;1.27;;;;;;;4.55;99.74;93974.81;6064223;23;20377;-82
2021/12/28 16:16:30;;;;;;;7.20;1.73;;;;;;;4.62;100.00;94003.31;6065772;23;20616;-82
2021/12/28 16:18:56;;;;;;;12.80;1.60;;;;;;;4.61;100.00;94005.09;6065958;23;20197;-82
2021/12/28 16:21:22;;;;;;;24.20;1.97;;;;;;;4.62;100.00;94021.31;6065560;23;20158;-83
2021/12/28 16:23:48;;;;;;;5.43;1.20;;;;;;;4.57;100.00;94005.50;6090274;23;20187;-83
2021/12/28 16:26:17;;;;;;;3.80;0.90;;;;;;;4.44;98.60;94014.44;6066078;23;20663;-82
2021/12/28 16:28:43;;;;;;;4.67;2.23;;;;;;;4.44;98.93;93999.00;6089284;23;20165;-82
2021/12/28 16:31:09;;;;;;;3.13;1.10;;;;;;;4.40;99.47;94009.72;6065761;23;20256;-82
2021/12/28 16:33:35;;;;;;;3.77;1.00;;;;;;;4.44;95.33;94003.34;6042237;23;20176;-83
2021/12/28 16:39:36;;;;;;;;;;;;;;;;;;;;;
2021/12/28 16:59:08;;;;;;;16.27;1.73;;;;;;;4.70;92.92;94022.19;6014360;23;20197;-88
2021/12/28 17:05:55;;;;;;;9.30;2.07;;;;;;;4.76;92.97;94016.44;5903891;24;20542;-82
2021/12/28 18:16:49;;;;;;;7.10;2.40;;;;;;;5.82;95.45;94024.72;6054086;23;20554;-79
2021/12/28 18:40:48;;;;;;;5.70;1.87;;;;;;;5.62;99.12;94042.19;6009063;23;20217;-83
2021/12/28 19:39:02;;;;;;;7.77;2.57;;;;;;;6.03;96.09;94015.81;6117368;23;20207;-82
2021/12/28 20:27:43;;;;;;;12.23;2.53;;;;;;;6.30;92.46;94031.03;6121733;23;20211;-82
2021/12/28 20:38:15;;;;;;;9.33;2.57;;;;;;;6.20;94.87;94051.00;5900953;24;20217;-84
2021/12/28 20:47:41;;;;;;;15.40;2.20;;;;;;;6.03;96.17;94037.25;5878458;24;20571;-83
2021/12/28 21:22:44;;;;;;;14.27;3.17;;;;;;;5.99;97.33;94090.03;6110612;23;20207;-83
2021/12/28 21:34:18;;;;;;;;;;;;;;;;;;;;;
2021/12/28 22:22:23;;;;;;;11.80;2.73;;;;;;;5.80;99.20;94170.91;5947160;24;20190;-83
2021/12/28 22:28:57;;;;;;;;;;;;;;;;;;;;;
